createdAt,value
2023-05-23T00:01:45.490Z,7.72
2023-05-23T00:04:18.942Z,4.38
2023-05-23T00:06:50.659Z,5.47
2023-05-23T00:09:17.899Z,4.35
2023-05-23T00:11:45.610Z,5.35
2023-05-23T00:14:16.994Z,6.40
2023-05-23T00:16:45.323Z,6.63
2023-05-23T00:19:16.359Z,3.50
2023-05-23T00:21:45.747Z,6.95
2023-05-23T00:24:13.163Z,4.07
2023-05-23T00:26:40.137Z,4.28
2023-05-23T00:29:07.449Z,5.25
2023-05-23T00:31:34.661Z,5.80
2023-05-23T00:34:01.594Z,5.35
2023-05-23T00:36:28.497Z,4.72
2023-05-23T00:38:55.834Z,4.63
2023-05-23T00:41:22.771Z,5.10
2023-05-23T00:43:49.603Z,3.90
2023-05-23T00:46:16.847Z,5.28
2023-05-23T00:48:44.048Z,5.25
2023-05-23T00:51:10.973Z,6.43
2023-05-23T00:53:37.979Z,6.03
2023-05-23T00:56:05.115Z,4.20
2023-05-23T00:58:32.457Z,5.72
2023-05-23T01:01:01.057Z,5.40
2023-05-23T01:03:28.842Z,5.60
2023-05-23T01:05:56.809Z,7.50
2023-05-23T01:08:24.199Z,5.65
2023-05-23T01:10:52.134Z,5.25
2023-05-23T01:13:30.946Z,4.60
2023-05-23T01:16:15.209Z,7.03
2023-05-23T01:19:17.704Z,11.02
2023-05-23T01:21:53.055Z,7.28
2023-05-23T01:24:36.402Z,5.70
2023-05-23T01:27:18.947Z,4.85
2023-05-23T01:29:47.655Z,5.65
2023-05-23T01:32:15.986Z,6.88
2023-05-23T01:34:44.152Z,8.35
2023-05-23T01:37:14.548Z,6.13
2023-05-23T01:39:42.234Z,9.15
2023-05-23T01:42:09.865Z,5.25
2023-05-23T01:44:37.305Z,5.40
2023-05-23T01:47:08.332Z,5.00
2023-05-23T01:49:37.193Z,8.60
2023-05-23T01:52:05.813Z,7.15
2023-05-23T01:54:35.410Z,5.20
2023-05-23T01:57:03.701Z,6.05
2023-05-23T01:59:30.658Z,6.72
2023-05-23T02:01:57.589Z,4.55
2023-05-23T02:04:24.507Z,6.35
2023-05-23T02:06:51.431Z,6.95
2023-05-23T02:09:18.787Z,5.47
2023-05-23T02:11:45.692Z,4.28
2023-05-23T02:14:13.054Z,4.45
2023-05-23T02:16:40.039Z,5.80
2023-05-23T02:19:07.421Z,5.95
2023-05-23T02:21:35.555Z,6.88
2023-05-23T02:24:02.877Z,6.57
2023-05-23T02:26:30.781Z,6.07
2023-05-23T02:28:57.680Z,7.68
2023-05-23T02:31:24.589Z,5.60
2023-05-23T02:33:51.532Z,6.07
2023-05-23T02:36:18.536Z,5.55
2023-05-23T02:38:45.481Z,5.00
2023-05-23T02:41:12.665Z,6.68
2023-05-23T02:43:39.694Z,5.65
2023-05-23T02:46:06.777Z,5.57
2023-05-23T02:48:34.104Z,4.97
2023-05-23T02:51:01.176Z,4.68
2023-05-23T02:53:28.489Z,4.88
2023-05-23T02:55:55.477Z,8.45
2023-05-23T02:58:22.350Z,4.55
2023-05-23T03:00:49.619Z,6.25
2023-05-23T03:03:17.732Z,6.07
2023-05-23T03:05:45.176Z,6.13
2023-05-23T03:08:12.171Z,6.63
2023-05-23T03:10:39.069Z,6.38
2023-05-23T03:13:06.000Z,8.45
2023-05-23T03:15:32.903Z,5.85
2023-05-23T03:17:59.902Z,5.78
2023-05-23T03:20:27.343Z,4.40
2023-05-23T03:22:54.171Z,6.50
2023-05-23T03:25:21.083Z,4.82
2023-05-23T03:27:47.962Z,7.97
2023-05-23T03:30:15.351Z,5.05
2023-05-23T03:32:42.430Z,6.03
2023-05-23T03:35:09.814Z,6.03
2023-05-23T03:37:36.675Z,6.03
2023-05-23T03:40:04.073Z,6.90
2023-05-23T03:42:31.467Z,7.68
2023-05-23T03:44:58.424Z,4.78
2023-05-23T03:47:25.415Z,4.47
2023-05-23T03:49:52.765Z,4.97
2023-05-23T03:52:20.029Z,4.78
2023-05-23T03:54:46.896Z,6.55
2023-05-23T03:57:13.827Z,8.02
2023-05-23T03:59:41.762Z,6.55
2023-05-23T04:02:08.721Z,5.70
2023-05-23T04:04:36.271Z,3.75
2023-05-23T04:07:03.240Z,7.63
2023-05-23T04:09:30.616Z,4.47
2023-05-23T04:11:58.495Z,7.28
2023-05-23T04:14:25.439Z,5.57
2023-05-23T04:16:52.489Z,5.60
2023-05-23T04:19:19.947Z,5.25
2023-05-23T04:21:47.377Z,5.43
2023-05-23T04:24:14.332Z,6.65
2023-05-23T04:26:41.424Z,4.28
2023-05-23T04:29:08.820Z,4.05
2023-05-23T04:31:35.693Z,7.10
2023-05-23T04:34:02.847Z,6.15
2023-05-23T04:36:30.312Z,7.03
2023-05-23T04:38:57.295Z,4.60
2023-05-23T04:41:24.517Z,7.70
2023-05-23T04:43:54.386Z,5.40
2023-05-23T04:46:27.673Z,5.03
2023-05-23T04:48:55.342Z,7.30
2023-05-23T04:51:22.515Z,6.60
2023-05-23T04:53:50.534Z,4.18
2023-05-23T04:56:18.594Z,5.90
2023-05-23T04:58:48.114Z,4.97
2023-05-23T05:01:15.074Z,6.80
2023-05-23T05:03:42.102Z,6.28
2023-05-23T05:06:09.195Z,4.60
2023-05-23T05:08:36.941Z,5.68
2023-05-23T05:11:03.893Z,4.15
2023-05-23T05:13:31.212Z,7.60
2023-05-23T05:15:58.945Z,5.30
2023-05-23T05:18:30.127Z,8.60
2023-05-23T05:20:57.465Z,6.57
2023-05-23T05:23:28.984Z,7.80
2023-05-23T05:25:56.589Z,8.35
2023-05-23T05:28:24.130Z,5.25
2023-05-23T05:30:54.414Z,5.45
2023-05-23T05:33:25.324Z,5.25
2023-05-23T05:35:52.271Z,8.27
2023-05-23T05:38:19.115Z,9.55
2023-05-23T05:40:46.065Z,4.50
2023-05-23T05:43:12.989Z,8.10
2023-05-23T05:45:40.333Z,7.45
2023-05-23T05:48:08.267Z,12.32
2023-05-23T05:50:35.337Z,6.07
2023-05-23T05:53:02.332Z,4.72
2023-05-23T05:55:29.570Z,5.10
2023-05-23T05:57:56.631Z,4.40
2023-05-23T06:00:25.317Z,7.43
2023-05-23T06:02:52.675Z,5.28
2023-05-23T06:05:19.799Z,6.28
2023-05-23T06:07:49.756Z,6.00
2023-05-23T06:10:16.799Z,8.00
2023-05-23T06:12:43.747Z,5.25
2023-05-23T06:15:11.140Z,3.90
2023-05-23T06:17:38.182Z,5.65
2023-05-23T06:20:05.921Z,4.43
2023-05-23T06:22:32.944Z,3.10
2023-05-23T06:24:59.999Z,6.30
2023-05-23T06:27:26.890Z,4.18
2023-05-23T06:29:54.016Z,3.92
2023-05-23T06:32:20.922Z,3.25
2023-05-23T06:34:47.817Z,7.40
2023-05-23T06:37:14.818Z,5.63
2023-05-23T06:39:41.716Z,4.68
2023-05-23T06:42:08.685Z,5.40
2023-05-23T06:44:36.098Z,3.97
2023-05-23T06:47:03.054Z,5.57
2023-05-23T06:49:30.415Z,4.72
2023-05-23T06:51:57.380Z,3.65
2023-05-23T06:54:24.756Z,5.57
2023-05-23T06:56:51.690Z,3.58
2023-05-23T06:59:19.680Z,2.88
2023-05-23T07:01:46.834Z,4.22
2023-05-23T07:04:14.424Z,3.72
2023-05-23T07:06:44.245Z,6.45
2023-05-23T07:09:13.209Z,2.80
2023-05-23T07:11:41.306Z,3.60
2023-05-23T07:14:08.759Z,2.40
2023-05-23T07:16:36.040Z,3.83
2023-05-23T07:19:05.640Z,3.38
2023-05-23T07:21:32.671Z,5.80
2023-05-23T07:23:59.573Z,4.25
2023-05-23T07:26:27.604Z,5.03
2023-05-23T07:28:54.735Z,3.25
2023-05-23T07:31:21.896Z,4.65
2023-05-23T07:33:48.939Z,3.75
2023-05-23T07:36:16.590Z,8.55
2023-05-23T07:38:43.866Z,3.95
2023-05-23T07:41:12.411Z,4.22
2023-05-23T07:43:40.698Z,3.80
2023-05-23T07:46:07.793Z,5.80
2023-05-23T07:48:34.844Z,4.95
2023-05-23T07:51:01.830Z,4.95
2023-05-23T07:53:28.868Z,5.13
2023-05-23T07:55:56.800Z,2.70
2023-05-23T07:58:24.257Z,2.45
2023-05-23T08:00:52.720Z,2.40
2023-05-23T08:03:20.649Z,3.17
2023-05-23T08:05:47.788Z,5.32
2023-05-23T08:08:14.749Z,3.05
2023-05-23T08:10:41.799Z,4.00
2023-05-23T08:13:12.750Z,3.05
2023-05-23T08:15:40.092Z,2.17
2023-05-23T08:18:07.501Z,4.95
2023-05-23T08:20:34.501Z,4.75
2023-05-23T08:23:02.653Z,2.83
2023-05-23T08:25:33.213Z,7.75
2023-05-23T08:28:01.607Z,2.72
2023-05-23T08:30:29.636Z,5.55
2023-05-23T08:32:57.889Z,8.02
2023-05-23T08:35:24.845Z,3.38
2023-05-23T08:37:52.552Z,6.03
2023-05-23T08:40:22.164Z,6.60
2023-05-23T08:42:50.952Z,3.58
2023-05-23T08:45:18.818Z,3.70
2023-05-23T08:47:47.574Z,4.97
2023-05-23T08:50:18.021Z,4.13
2023-05-23T08:52:57.715Z,5.40
2023-05-23T08:55:27.359Z,3.38
2023-05-23T08:57:55.292Z,6.30
2023-05-23T09:00:24.910Z,4.28
2023-05-23T09:02:52.830Z,2.90
2023-05-23T09:05:20.389Z,3.70
2023-05-23T09:07:49.199Z,2.95
2023-05-23T09:10:25.622Z,3.05
2023-05-23T09:12:52.565Z,3.03
2023-05-23T09:15:19.457Z,3.20
2023-05-23T09:17:46.991Z,4.85
2023-05-23T09:20:16.785Z,5.10
2023-05-23T09:22:50.111Z,3.67
2023-05-23T09:25:17.290Z,3.83
2023-05-23T09:27:47.506Z,5.22
2023-05-23T09:30:15.883Z,2.30
2023-05-23T09:32:44.742Z,3.72
2023-05-23T09:35:13.910Z,3.40
2023-05-23T09:37:49.020Z,2.63
2023-05-23T09:40:16.639Z,3.75
2023-05-23T09:42:46.362Z,3.53
2023-05-23T09:45:15.052Z,3.90
2023-05-23T09:47:52.358Z,1.83
2023-05-23T09:50:20.081Z,3.15
2023-05-23T09:52:48.187Z,3.22
2023-05-23T09:55:15.703Z,2.30
2023-05-23T09:57:44.439Z,4.05
2023-05-23T10:00:13.865Z,4.07
2023-05-23T10:02:56.148Z,4.00
2023-05-23T10:05:47.523Z,2.05
2023-05-23T10:08:22.372Z,2.35
2023-05-23T10:10:52.525Z,3.70
2023-05-23T10:13:20.779Z,3.13
2023-05-23T10:15:50.757Z,2.72
2023-05-23T10:18:23.757Z,2.22
2023-05-23T10:20:54.215Z,3.75
2023-05-23T10:23:22.164Z,3.95
2023-05-23T10:25:49.606Z,5.25
2023-05-23T10:28:17.499Z,2.67
2023-05-23T10:30:46.028Z,2.95
2023-05-23T10:33:17.141Z,3.15
2023-05-23T10:36:00.697Z,1.85
2023-05-23T10:39:06.140Z,5.60
2023-05-23T10:42:11.439Z,3.17
2023-05-23T10:44:38.418Z,4.10
2023-05-23T10:47:05.971Z,2.72
2023-05-23T10:49:52.045Z,3.42
2023-05-23T10:52:19.403Z,3.58
2023-05-23T10:54:54.261Z,2.97
2023-05-23T10:57:25.587Z,2.03
2023-05-23T10:59:53.624Z,3.03
2023-05-23T11:02:26.588Z,2.03
2023-05-23T11:05:23.475Z,4.18
2023-05-23T11:08:11.187Z,4.95
2023-05-23T11:10:57.065Z,4.55
2023-05-23T11:13:24.730Z,2.20
2023-05-23T11:15:51.905Z,2.28
2023-05-23T11:18:27.903Z,1.42
2023-05-23T11:20:58.424Z,6.65
2023-05-23T11:23:40.881Z,2.63
2023-05-23T11:26:31.350Z,2.15
2023-05-23T11:28:59.508Z,1.90
2023-05-23T11:31:28.063Z,2.47
2023-05-23T11:34:05.933Z,2.45
2023-05-23T11:36:33.912Z,2.83
2023-05-23T11:39:04.756Z,2.97
2023-05-23T11:41:33.584Z,2.33
2023-05-23T11:44:01.706Z,3.70
2023-05-23T11:46:29.455Z,2.05
2023-05-23T11:48:56.914Z,4.20
2023-05-23T11:51:23.967Z,2.58
2023-05-23T11:53:51.324Z,2.33
2023-05-23T11:56:18.744Z,1.88
2023-05-23T11:58:45.685Z,6.55
2023-05-23T12:01:14.047Z,4.47
2023-05-23T12:03:51.488Z,2.58
2023-05-23T12:06:19.699Z,1.58
2023-05-23T12:08:48.462Z,2.58
2023-05-23T12:11:15.753Z,2.83
2023-05-23T12:13:43.239Z,2.25
2023-05-23T12:16:13.309Z,6.05
2023-05-23T12:18:42.871Z,2.00
2023-05-23T12:21:10.167Z,1.95
2023-05-23T12:23:37.550Z,3.58
2023-05-23T12:26:10.372Z,2.25
2023-05-23T12:28:40.394Z,5.60
2023-05-23T12:31:18.316Z,1.98
2023-05-23T12:33:47.926Z,1.45
2023-05-23T12:36:22.864Z,2.50
2023-05-23T12:38:50.057Z,3.30
2023-05-23T12:41:22.379Z,2.70
2023-05-23T12:43:57.160Z,5.15
2023-05-23T12:46:26.123Z,2.50
2023-05-23T12:48:54.108Z,2.63
2023-05-23T12:51:21.692Z,2.58
2023-05-23T12:53:49.007Z,2.63
2023-05-23T12:56:16.089Z,2.25
2023-05-23T12:58:43.918Z,5.40
2023-05-23T13:01:11.291Z,3.10
2023-05-23T13:03:38.519Z,2.17
2023-05-23T13:06:06.758Z,1.85
2023-05-23T13:08:33.802Z,3.50
2023-05-23T13:11:01.222Z,3.08
2023-05-23T13:13:28.551Z,4.07
2023-05-23T13:15:56.032Z,2.25
2023-05-23T13:18:22.999Z,4.55
2023-05-23T13:20:50.124Z,1.50
2023-05-23T13:23:17.477Z,2.95
2023-05-23T13:25:44.556Z,4.00
2023-05-23T13:28:11.562Z,1.30
2023-05-23T13:30:38.452Z,3.45
2023-05-23T13:33:05.580Z,1.30
2023-05-23T13:35:32.600Z,5.18
2023-05-23T13:37:59.578Z,1.73
2023-05-23T13:40:26.903Z,2.17
2023-05-23T13:42:53.818Z,2.10
2023-05-23T13:45:23.104Z,0.90
2023-05-23T13:47:50.681Z,2.88
2023-05-23T13:50:18.049Z,4.25
2023-05-23T13:52:48.176Z,1.98
2023-05-23T13:55:16.644Z,3.72
2023-05-23T13:57:43.555Z,1.55
2023-05-23T14:00:11.564Z,1.90
2023-05-23T14:02:38.495Z,2.70
2023-05-23T14:05:07.380Z,1.23
2023-05-23T14:07:34.720Z,1.52
2023-05-23T14:10:01.850Z,2.72
2023-05-23T14:12:29.140Z,2.55
2023-05-23T14:14:56.114Z,2.42
2023-05-23T14:17:23.154Z,2.28
2023-05-23T14:19:50.629Z,2.70
2023-05-23T14:22:17.659Z,2.38
2023-05-23T14:24:44.610Z,2.38
2023-05-23T14:27:12.225Z,2.53
2023-05-23T14:29:39.594Z,1.67
2023-05-23T14:32:07.088Z,0.80
2023-05-23T14:34:34.283Z,4.55
2023-05-23T14:37:01.390Z,2.70
2023-05-23T14:39:29.115Z,2.72
2023-05-23T14:41:56.600Z,3.10
2023-05-23T14:44:23.725Z,1.70
2023-05-23T14:46:50.852Z,3.85
2023-05-23T14:49:18.302Z,1.95
2023-05-23T14:51:51.210Z,1.38
2023-05-23T14:54:19.840Z,3.10
2023-05-23T14:56:47.253Z,1.75
2023-05-23T14:59:14.341Z,0.80
2023-05-23T15:01:41.875Z,1.40
2023-05-23T15:04:10.140Z,3.83
2023-05-23T15:06:39.160Z,1.67
2023-05-23T15:09:07.427Z,3.97
2023-05-23T15:11:38.962Z,1.50
2023-05-23T15:14:06.433Z,1.98
2023-05-23T15:16:35.223Z,1.08
2023-05-23T15:19:02.351Z,2.35
2023-05-23T15:21:29.325Z,1.25
2023-05-23T15:23:57.740Z,2.30
2023-05-23T15:26:25.189Z,3.85
2023-05-23T15:28:52.560Z,5.40
2023-05-23T15:31:20.733Z,2.00
2023-05-23T15:33:48.045Z,2.35
2023-05-23T15:36:14.952Z,3.83
2023-05-23T15:38:41.841Z,4.00
2023-05-23T15:41:10.110Z,2.03
2023-05-23T15:43:37.192Z,1.00
2023-05-23T15:46:05.451Z,1.27
2023-05-23T15:48:32.731Z,2.78
2023-05-23T15:50:59.613Z,1.88
2023-05-23T15:53:26.558Z,2.60
2023-05-23T15:55:53.629Z,1.98
2023-05-23T15:58:20.768Z,4.60
2023-05-23T16:00:48.050Z,1.65
2023-05-23T16:03:15.009Z,2.45
2023-05-23T16:05:42.585Z,6.38
2023-05-23T16:08:10.487Z,2.10
2023-05-23T16:10:37.789Z,1.90
2023-05-23T16:13:04.784Z,3.40
2023-05-23T16:15:32.068Z,1.90
2023-05-23T16:17:59.089Z,2.03
2023-05-23T16:20:26.264Z,1.83
2023-05-23T16:22:53.261Z,3.38
2023-05-23T16:25:20.308Z,1.80
2023-05-23T16:27:47.249Z,3.13
2023-05-23T16:30:14.308Z,2.05
2023-05-23T16:32:41.315Z,2.53
2023-05-23T16:35:08.748Z,2.50
2023-05-23T16:37:38.682Z,1.90
2023-05-23T16:40:09.550Z,3.22
2023-05-23T16:42:40.140Z,5.05
2023-05-23T16:45:07.697Z,4.05
2023-05-23T16:47:35.075Z,2.35
2023-05-23T16:50:02.320Z,5.57
2023-05-23T16:52:30.451Z,3.55
2023-05-23T16:54:58.354Z,1.48
2023-05-23T16:57:25.673Z,2.83
2023-05-23T16:59:52.968Z,1.88
2023-05-23T17:02:20.232Z,2.25
2023-05-23T17:04:47.251Z,4.88
2023-05-23T17:07:15.499Z,4.80
2023-05-23T17:09:42.825Z,2.85
2023-05-23T17:12:09.765Z,3.40
2023-05-23T17:14:36.944Z,2.20
2023-05-23T17:17:05.316Z,5.88
2023-05-23T17:19:32.780Z,3.97
2023-05-23T17:21:59.837Z,4.22
2023-05-23T17:24:26.841Z,5.63
2023-05-23T17:26:54.189Z,3.47
2023-05-23T17:29:21.154Z,3.13
2023-05-23T17:31:48.475Z,6.53
2023-05-23T17:34:16.061Z,2.72
2023-05-23T17:36:43.028Z,2.92
2023-05-23T17:39:10.335Z,3.28
2023-05-23T17:41:37.623Z,4.53
2023-05-23T17:44:04.478Z,3.38
2023-05-23T17:46:31.601Z,2.85
2023-05-23T17:48:58.610Z,5.30
2023-05-23T17:51:25.445Z,3.63
2023-05-23T17:53:53.871Z,2.75
2023-05-23T17:56:23.578Z,7.38
2023-05-23T17:58:51.447Z,2.53
2023-05-23T18:01:18.413Z,3.75
2023-05-23T18:03:45.495Z,6.07
2023-05-23T18:06:12.703Z,5.05
2023-05-23T18:08:41.006Z,10.80
2023-05-23T18:11:07.906Z,4.97
2023-05-23T18:13:34.828Z,7.40
2023-05-23T18:16:01.729Z,6.32
2023-05-23T18:18:28.725Z,7.32
2023-05-23T18:20:55.689Z,6.20
2023-05-23T18:23:23.276Z,8.05
2023-05-23T18:25:50.213Z,6.97
2023-05-23T18:28:17.531Z,6.38
2023-05-23T18:30:45.106Z,10.07
2023-05-23T18:33:12.189Z,10.45
2023-05-23T18:35:39.212Z,16.70
2023-05-23T18:38:06.842Z,18.55
2023-05-23T18:40:33.791Z,15.43
2023-05-23T18:43:00.743Z,24.02
2023-05-23T18:45:27.752Z,14.73
2023-05-23T18:47:55.233Z,17.45
2023-05-23T18:50:22.331Z,17.27
2023-05-23T18:52:49.261Z,13.00
2023-05-23T18:55:16.987Z,13.25
2023-05-23T18:57:44.318Z,10.00
2023-05-23T19:00:12.193Z,12.20
2023-05-23T19:02:44.166Z,19.40
2023-05-23T19:05:12.673Z,7.28
2023-05-23T19:07:39.716Z,8.43
2023-05-23T19:10:07.135Z,6.47
2023-05-23T19:12:34.197Z,8.60
2023-05-23T19:15:01.951Z,7.90
2023-05-23T19:17:28.951Z,13.60
2023-05-23T19:19:56.022Z,11.35
2023-05-23T19:22:23.813Z,13.70
2023-05-23T19:24:50.893Z,10.82
2023-05-23T19:27:17.940Z,8.00
2023-05-23T19:29:45.448Z,8.45
2023-05-23T19:32:12.716Z,10.32
2023-05-23T19:34:39.702Z,11.65
2023-05-23T19:37:06.683Z,8.15
2023-05-23T19:39:33.948Z,13.90
2023-05-23T19:42:01.246Z,13.13
2023-05-23T19:44:28.268Z,15.25
2023-05-23T19:46:55.688Z,13.63
2023-05-23T19:49:22.713Z,14.80
2023-05-23T19:51:49.980Z,24.00
2023-05-23T19:54:17.729Z,14.32
2023-05-23T19:56:45.708Z,16.45
2023-05-23T19:59:13.683Z,15.32
2023-05-23T20:01:40.670Z,11.15
2023-05-23T20:04:10.113Z,8.35
2023-05-23T20:06:37.308Z,11.73
2023-05-23T20:09:05.147Z,9.88
2023-05-23T20:11:32.469Z,8.52
2023-05-23T20:13:59.343Z,9.38
2023-05-23T20:16:26.482Z,13.85
2023-05-23T20:18:53.439Z,15.48
2023-05-23T20:21:20.849Z,15.38
2023-05-23T20:23:49.157Z,9.05
2023-05-23T20:26:16.422Z,12.18
2023-05-23T20:28:43.354Z,9.77
2023-05-23T20:31:10.654Z,12.27
2023-05-23T20:33:37.568Z,10.52
2023-05-23T20:36:04.815Z,8.82
2023-05-23T20:38:34.056Z,8.40
2023-05-23T20:41:06.615Z,8.93
2023-05-23T20:43:37.452Z,5.50
2023-05-23T20:46:09.382Z,6.43
2023-05-23T20:48:36.730Z,5.05
2023-05-23T20:51:05.762Z,5.80
2023-05-23T20:53:33.693Z,8.65
2023-05-23T20:56:01.272Z,7.65
2023-05-23T20:58:28.222Z,6.40
2023-05-23T21:00:55.928Z,5.40
2023-05-23T21:03:22.871Z,5.00
2023-05-23T21:05:50.019Z,7.32
2023-05-23T21:08:16.938Z,8.68
2023-05-23T21:10:46.785Z,4.90
2023-05-23T21:13:16.656Z,6.78
2023-05-23T21:15:43.900Z,5.22
2023-05-23T21:18:10.990Z,6.88
2023-05-23T21:20:38.353Z,7.35
2023-05-23T21:23:07.758Z,7.30
2023-05-23T21:25:34.624Z,9.27
2023-05-23T21:28:01.534Z,4.50
2023-05-23T21:30:28.954Z,7.03
2023-05-23T21:32:56.394Z,6.45
2023-05-23T21:35:23.335Z,6.10
2023-05-23T21:37:50.839Z,4.80
2023-05-23T21:40:18.016Z,7.07
2023-05-23T21:42:44.940Z,9.07
2023-05-23T21:45:11.968Z,6.55
2023-05-23T21:47:39.368Z,11.80
2023-05-23T21:50:07.063Z,6.63
2023-05-23T21:52:34.801Z,6.55
2023-05-23T21:55:02.134Z,5.05
2023-05-23T21:57:29.039Z,8.07
2023-05-23T21:59:55.909Z,4.70
2023-05-23T22:02:23.232Z,7.53
2023-05-23T22:04:50.581Z,7.03
2023-05-23T22:07:19.421Z,13.85
2023-05-23T22:09:46.447Z,13.30
2023-05-23T22:12:13.921Z,11.85
2023-05-23T22:14:41.241Z,10.32
2023-05-23T22:17:10.017Z,11.95
2023-05-23T22:19:37.638Z,9.50
2023-05-23T22:22:04.769Z,9.88
2023-05-23T22:24:31.709Z,11.50
2023-05-23T22:27:00.728Z,9.00
2023-05-23T22:29:27.712Z,9.00
2023-05-23T22:31:54.681Z,9.25
2023-05-23T22:34:23.985Z,9.55
2023-05-23T22:36:50.870Z,10.65
2023-05-23T22:39:17.791Z,10.63
2023-05-23T22:41:44.679Z,8.07
2023-05-23T22:44:11.897Z,6.82
2023-05-23T22:46:39.594Z,11.00
2023-05-23T22:49:08.862Z,9.25
2023-05-23T22:51:36.106Z,7.38
2023-05-23T22:54:03.164Z,6.63
2023-05-23T22:56:30.086Z,6.20
2023-05-23T22:58:57.349Z,6.85
2023-05-23T23:01:24.267Z,5.60
2023-05-23T23:03:51.174Z,9.93
2023-05-23T23:06:21.054Z,5.78
2023-05-23T23:08:48.031Z,5.57
2023-05-23T23:11:14.995Z,6.13
2023-05-23T23:13:41.967Z,8.90
2023-05-23T23:16:09.231Z,9.85
2023-05-23T23:18:36.222Z,10.95
2023-05-23T23:21:03.625Z,4.75
2023-05-23T23:23:30.906Z,6.57
2023-05-23T23:25:59.502Z,5.60
2023-05-23T23:28:26.530Z,7.13
2023-05-23T23:30:53.994Z,7.93
2023-05-23T23:33:21.022Z,8.15
2023-05-23T23:35:48.586Z,5.93
2023-05-23T23:38:16.480Z,10.02
2023-05-23T23:40:45.579Z,11.27
2023-05-23T23:43:13.314Z,7.75
2023-05-23T23:45:40.361Z,8.73
2023-05-23T23:48:07.234Z,6.80
2023-05-23T23:50:34.152Z,7.18
2023-05-23T23:53:01.109Z,6.90
2023-05-23T23:55:28.015Z,7.55
2023-05-23T23:57:54.914Z,7.63
